Bayfield, CO

12:01 PM MDT on September 19, 2014 (GMT -0600)
Pagosa Springs | Change Station
CLOSE
Current Station
Airport
Location: Pagosa Springs,
Elevation: 7657 ft
Nearby Weather Stations

Elev 7657 ft 37.29 °N, 107.06 °W | Updated 26 minutes ago

Clear
Clear
70 °F
Feels Like 70 °F
N
6
Wind Variable Wind from SW

Today
High -- | Low -- °F
--% Chance of Precip.
Yesterday
High -- | Low -- °F
Precip. -- in
6:55 AM 7:11 PM
Waning Crescent, 18% visible
Pressure 30.23 in
Visibility 10.0 miles
Clouds Clear
Dew Point 42 °F
Humidity 36%
Rainfall 0.00 in
Snow Depth 0 in , 87 in , 0 in
UV 8 out of 12
Pollen 6.30 out of 12
Air Quality Not available.
Flu Activity Not available.
METAR KPSO 191735Z AUTO 23005KT 10SM CLR 21/05 A3023 RMK AO2 T02090054

More Conditions Fewer Conditions

Pressure 30.23 in
Visibility 10.0 miles
Clouds Clear
Dew Point 42 °F
Humidity 36%
Rainfall 0.00 in
Snow Depth 0 in , 87 in , 0 in
UV 8 out of 12
Pollen 6.30 out of 12
Air Quality Not available.
Flu Activity Not available.
METAR KPSO 191735Z AUTO 23005KT 10SM CLR 21/05 A3023 RMK AO2 T02090054

More Conditions Fewer Conditions

10-Day Weather Forecast

Almanac

Astronomy

Sep. 19, 2014 Rise Set
Actual Time 6:55 AM MDT 7:11 PM MDT
Civil Twilight 6:29 AM MDT 7:37 PM MDT
Nautical Twilight 5:59 AM MDT 8:08 PM MDT
Astronomical Twilight 5:28 AM MDT 8:39 PM MDT
Moon 2:48 AM MDT 4:38 PM MDT
Length of Visible Light 13h 08m
Length of Day
12h 16m
Tomorrow will be 2m 22s shorter.
Waning Crescent, 18% of the Moon is Illuminated
Today
Waning Crescent
Sep 24
New
Oct 1
First Quarter
Oct 8
Full
Oct 15
Last Quarter

Today's Extremes

State Highs State Lows

Community

WunderPhotos

Upload Photos

1,754,677 photos uploaded!

Nearby

Snow Depth

Station Depth Elevation
Roach 0 in 9700 ft
Vail Mountain 87 in 10300 ft
Columbus Basin 0 in 10785 ft
Beaver Divide 0 in 8280 ft
Scotch Creek 0 in 9100 ft

Earthquake Activity

City Distance Mag. Time & Date
No recent earthquake activity has been reported nearby.
Minimum magnitude displayed is 2.5.

Coastal Water Temperatures

Place Temperature
No Stations Reporting

Nearby Weather Stations